createdAt,value
2019-05-03T00:02:25.959Z,29.00
2019-05-03T00:05:16.042Z,29.00
2019-05-03T00:07:49.375Z,29.10
2019-05-03T00:10:22.460Z,29.20
2019-05-03T00:12:55.302Z,29.20
2019-05-03T00:15:46.607Z,29.20
2019-05-03T00:18:22.005Z,29.30
2019-05-03T00:20:55.697Z,29.40
2019-05-03T00:23:29.630Z,29.40
2019-05-03T00:26:03.120Z,29.50
2019-05-03T00:28:36.072Z,29.50
2019-05-03T00:31:09.860Z,29.60
2019-05-03T00:33:45.193Z,29.70
2019-05-03T00:36:22.563Z,29.70
2019-05-03T00:38:58.034Z,29.80
2019-05-03T00:41:31.997Z,29.90
2019-05-03T00:44:04.410Z,29.90
2019-05-03T00:46:38.324Z,30.00
2019-05-03T00:49:12.014Z,30.10
2019-05-03T00:51:45.823Z,30.20
2019-05-03T00:54:19.598Z,30.30
2019-05-03T00:56:53.652Z,30.30
2019-05-03T00:59:29.056Z,30.40
2019-05-03T01:02:03.131Z,30.50
2019-05-03T01:04:36.947Z,30.50
2019-05-03T01:07:11.718Z,30.60
2019-05-03T01:09:44.761Z,30.70
2019-05-03T01:12:18.514Z,30.80
2019-05-03T01:14:52.182Z,30.90
2019-05-03T01:17:25.873Z,30.90
2019-05-03T01:19:59.924Z,31.00
2019-05-03T01:22:33.352Z,31.10
2019-05-03T01:25:07.404Z,31.20
2019-05-03T01:27:43.115Z,31.30
2019-05-03T01:30:16.929Z,31.40
2019-05-03T01:32:49.821Z,31.50
2019-05-03T01:35:22.591Z,31.50
2019-05-03T01:37:57.939Z,31.60
2019-05-03T01:40:32.594Z,31.70
2019-05-03T01:43:05.881Z,31.80
2019-05-03T01:45:39.647Z,31.90
2019-05-03T01:48:21.707Z,32.00
2019-05-03T01:51:13.775Z,32.00
2019-05-03T01:53:46.431Z,32.20
2019-05-03T01:56:19.425Z,32.30
2019-05-03T01:58:53.524Z,32.30
2019-05-03T02:01:35.848Z,32.50
2019-05-03T02:04:14.051Z,32.50
2019-05-03T02:06:46.678Z,32.60
2019-05-03T02:09:21.337Z,32.70
2019-05-03T02:11:53.429Z,32.80
2019-05-03T02:14:27.255Z,32.90
2019-05-03T02:17:01.661Z,33.00
2019-05-03T02:19:35.767Z,33.20
2019-05-03T02:22:08.599Z,33.30
2019-05-03T02:24:42.361Z,33.40
2019-05-03T02:27:16.030Z,33.50
2019-05-03T02:29:48.774Z,33.50
2019-05-03T02:32:23.258Z,33.70
2019-05-03T02:34:57.699Z,33.70
2019-05-03T02:37:33.053Z,33.80
2019-05-03T02:40:07.272Z,33.90
2019-05-03T02:42:40.611Z,33.90
2019-05-03T02:45:15.918Z,34.00
2019-05-03T02:47:57.831Z,34.10
2019-05-03T02:50:30.466Z,34.20
2019-05-03T02:53:05.758Z,34.30
2019-05-03T02:55:39.052Z,34.40
2019-05-03T02:58:15.711Z,34.50
2019-05-03T03:00:55.711Z,34.50
2019-05-03T03:03:30.067Z,34.60
2019-05-03T03:06:06.734Z,34.60
2019-05-03T03:08:40.674Z,34.70
2019-05-03T03:11:15.362Z,34.80
2019-05-03T03:13:48.021Z,34.90
2019-05-03T03:16:21.885Z,35.00
2019-05-03T03:18:56.473Z,35.10
2019-05-03T03:21:35.816Z,35.20
2019-05-03T03:24:17.207Z,35.20
2019-05-03T03:26:51.684Z,35.30
2019-05-03T03:29:27.717Z,35.40
2019-05-03T03:32:19.831Z,35.40
2019-05-03T03:35:03.187Z,35.50
2019-05-03T03:37:35.009Z,35.60
2019-05-03T03:40:07.925Z,35.80
2019-05-03T03:42:45.016Z,35.90
2019-05-03T03:45:17.869Z,36.10
2019-05-03T03:47:55.852Z,36.20
2019-05-03T03:50:28.631Z,36.40
2019-05-03T03:53:06.684Z,36.50
2019-05-03T03:55:45.864Z,36.70
2019-05-03T03:58:23.023Z,36.80
2019-05-03T04:00:52.367Z,36.90
2019-05-03T04:03:25.988Z,37.00
2019-05-03T04:05:59.228Z,37.10
2019-05-03T04:08:35.837Z,37.20
2019-05-03T04:11:08.428Z,37.20
2019-05-03T04:13:45.139Z,37.30
2019-05-03T04:16:25.903Z,37.40
2019-05-03T04:19:01.257Z,37.40
2019-05-03T04:21:35.829Z,37.50
2019-05-03T04:24:07.705Z,37.60
2019-05-03T04:26:41.733Z,37.70
2019-05-03T04:29:16.031Z,37.80
2019-05-03T04:31:48.908Z,37.90
2019-05-03T04:34:21.786Z,38.00
2019-05-03T04:36:55.926Z,38.10
2019-05-03T04:39:28.708Z,38.20
2019-05-03T04:42:06.297Z,38.20
2019-05-03T04:44:38.841Z,38.30
2019-05-03T04:47:11.549Z,38.30
2019-05-03T04:49:46.286Z,38.30
2019-05-03T04:52:20.919Z,38.20
2019-05-03T04:54:56.341Z,38.00
2019-05-03T04:57:40.008Z,38.00
2019-05-03T05:00:06.034Z,38.00
2019-05-03T05:02:40.477Z,38.10
2019-05-03T05:05:15.423Z,38.20
2019-05-03T05:07:48.794Z,38.20
2019-05-03T05:12:57.280Z,38.10
2019-05-03T05:15:29.015Z,38.00
2019-05-03T05:18:05.451Z,38.10
2019-05-03T05:20:37.131Z,38.10
2019-05-03T05:23:10.568Z,38.20
2019-05-03T05:25:44.693Z,38.30
2019-05-03T05:28:18.519Z,38.40
2019-05-03T05:30:54.636Z,38.50
2019-05-03T05:33:29.189Z,38.60
2019-05-03T05:36:04.723Z,38.80
2019-05-03T05:38:35.414Z,38.90
2019-05-03T05:41:07.150Z,39.10
2019-05-03T05:43:39.777Z,39.30
2019-05-03T05:46:14.508Z,39.50
2019-05-03T05:48:46.579Z,39.60
2019-05-03T05:51:18.114Z,39.70
2019-05-03T05:53:49.857Z,39.80
2019-05-03T05:56:24.944Z,39.70
2019-05-03T05:59:00.728Z,39.70
2019-05-03T06:01:36.254Z,39.40
2019-05-03T06:04:10.112Z,39.20
2019-05-03T06:06:45.014Z,38.90
2019-05-03T06:09:18.390Z,38.80
2019-05-03T06:11:52.601Z,38.60
2019-05-03T06:14:25.387Z,38.60
2019-05-03T06:16:58.256Z,38.70
2019-05-03T06:19:34.432Z,38.80
2019-05-03T06:22:08.589Z,38.80
2019-05-03T06:24:45.136Z,38.70
2019-05-03T06:27:17.551Z,38.80
2019-05-03T06:29:51.130Z,38.80
2019-05-03T06:32:25.378Z,38.90
2019-05-03T06:34:58.287Z,39.00
2019-05-03T06:37:35.419Z,39.10
2019-05-03T06:40:10.917Z,39.20
2019-05-03T06:42:52.419Z,39.40
2019-05-03T06:45:16.772Z,39.50
2019-05-03T06:47:49.995Z,39.70
2019-05-03T06:50:25.242Z,39.70
2019-05-03T06:52:54.782Z,39.70
2019-05-03T06:55:27.424Z,39.70
2019-05-03T06:58:00.080Z,39.50
2019-05-03T07:00:35.746Z,39.50
2019-05-03T07:03:08.986Z,39.70
2019-05-03T07:05:44.403Z,39.80
2019-05-03T07:08:16.837Z,39.90
2019-05-03T07:10:52.954Z,39.80
2019-05-03T07:13:25.697Z,39.80
2019-05-03T07:15:57.222Z,39.80
2019-05-03T07:18:28.687Z,39.80
2019-05-03T07:21:00.285Z,39.70
2019-05-03T07:23:34.750Z,39.50
2019-05-03T07:26:05.516Z,39.50
2019-05-03T07:28:46.840Z,39.40
2019-05-03T07:31:11.235Z,39.30
2019-05-03T07:33:44.507Z,39.20
2019-05-03T07:36:16.483Z,39.10
2019-05-03T07:38:49.189Z,39.10
2019-05-03T07:41:24.522Z,39.00
2019-05-03T07:43:55.956Z,39.00
2019-05-03T07:46:27.720Z,39.00
2019-05-03T07:49:00.259Z,38.90
2019-05-03T07:51:34.654Z,38.90
2019-05-03T07:54:05.989Z,38.90
2019-05-03T07:56:39.999Z,38.80
2019-05-03T07:59:14.895Z,38.70
2019-05-03T08:01:48.205Z,38.70
2019-05-03T08:04:20.790Z,38.60
2019-05-03T08:06:54.921Z,38.50
2019-05-03T08:09:28.074Z,38.40
2019-05-03T08:12:01.310Z,38.30
2019-05-03T08:14:35.504Z,38.20
2019-05-03T08:17:05.807Z,38.20
2019-05-03T08:19:37.232Z,38.10
2019-05-03T08:22:10.165Z,38.10
2019-05-03T08:24:41.992Z,38.00
2019-05-03T08:27:14.794Z,37.90
2019-05-03T08:29:47.708Z,37.90
2019-05-03T08:32:26.354Z,37.80
2019-05-03T08:35:00.024Z,37.60
2019-05-03T08:37:34.459Z,37.30
2019-05-03T08:40:10.543Z,36.70
2019-05-03T08:42:44.456Z,35.70
2019-05-03T08:45:18.149Z,34.30
2019-05-03T08:47:50.938Z,33.00
2019-05-03T08:50:26.239Z,31.90
2019-05-03T08:53:00.804Z,31.10
2019-05-03T08:55:32.576Z,30.50
2019-05-03T08:58:06.459Z,30.00
2019-05-03T09:00:49.396Z,29.40
2019-05-03T09:03:21.290Z,28.80
2019-05-03T09:05:56.209Z,28.30
2019-05-03T09:08:26.695Z,27.90
2019-05-03T09:10:59.567Z,27.50
2019-05-03T12:21:51.788Z,26.10
2019-05-03T12:25:02.797Z,26.10
2019-05-03T12:27:55.901Z,26.10
2019-05-03T12:33:31.402Z,26.20
2019-05-03T12:36:05.498Z,26.10
2019-05-03T12:38:38.614Z,26.10
2019-05-03T12:41:14.991Z,26.10
2019-05-03T12:43:48.831Z,26.10
2019-05-03T12:53:18.736Z,26.10
2019-05-03T12:55:51.754Z,26.10
2019-05-03T12:58:25.952Z,26.10
2019-05-03T13:07:54.736Z,26.20
2019-05-03T13:10:28.884Z,26.20
2019-05-03T13:17:02.138Z,26.20
2019-05-03T13:19:45.178Z,26.20
2019-05-03T13:22:25.349Z,26.20
2019-05-03T13:25:25.766Z,26.20
2019-05-03T13:41:54.828Z,26.00
2019-05-03T13:52:34.465Z,26.00
2019-05-03T14:05:12.409Z,26.20
2019-05-03T14:07:44.708Z,26.20
2019-05-03T14:10:18.261Z,26.20
2019-05-03T14:13:14.834Z,26.20
2019-05-03T14:15:49.490Z,26.20
2019-05-03T14:18:36.902Z,26.10
2019-05-03T14:21:10.438Z,26.20
2019-05-03T14:24:16.613Z,26.10
2019-05-03T14:38:05.908Z,26.10
2019-05-03T14:40:37.866Z,26.10
2019-05-03T14:43:10.590Z,26.10
2019-05-03T14:45:44.449Z,26.10
2019-05-03T14:58:52.796Z,26.10
2019-05-03T15:01:26.988Z,26.10
2019-05-03T15:03:59.924Z,26.00
2019-05-03T15:06:35.267Z,26.00
2019-05-03T15:09:09.489Z,26.00
2019-05-03T15:11:45.289Z,26.00
2019-05-03T15:14:18.876Z,26.00
2019-05-03T15:16:51.405Z,26.00
2019-05-03T15:19:25.403Z,26.00
2019-05-03T15:21:59.251Z,26.00
2019-05-03T15:24:34.460Z,26.10
2019-05-03T15:27:07.683Z,26.10
2019-05-03T15:29:40.429Z,26.10
2019-05-03T15:32:15.338Z,26.10
2019-05-03T15:34:49.617Z,26.10
2019-05-03T15:37:25.393Z,26.10
2019-05-03T15:39:58.927Z,26.10
2019-05-03T15:42:35.746Z,26.10
2019-05-03T15:45:28.286Z,26.10
2019-05-03T15:48:04.471Z,26.10
2019-05-03T15:50:38.535Z,26.10
2019-05-03T15:53:15.147Z,26.10
2019-05-03T15:55:49.990Z,26.20
2019-05-03T15:58:24.665Z,26.20
2019-05-03T16:00:56.964Z,26.20
2019-05-03T16:03:30.674Z,26.20
2019-05-03T16:06:04.898Z,26.20
2019-05-03T16:08:38.373Z,26.20
2019-05-03T16:11:14.687Z,26.20
2019-05-03T16:13:46.824Z,26.20
2019-05-03T16:16:21.215Z,26.20
2019-05-03T16:18:53.868Z,26.20
2019-05-03T16:21:30.343Z,26.20
2019-05-03T16:24:05.066Z,26.20
2019-05-03T16:26:39.718Z,26.20
2019-05-03T16:29:15.778Z,26.20
2019-05-03T16:31:50.069Z,26.20
2019-05-03T16:34:22.897Z,26.20
2019-05-03T16:36:55.542Z,26.30
2019-05-03T16:39:29.305Z,26.30
2019-05-03T16:42:04.255Z,26.30
2019-05-03T16:44:37.762Z,26.40
2019-05-03T16:47:10.528Z,26.40
2019-05-03T16:49:44.654Z,26.40
2019-05-03T16:52:18.960Z,26.40
2019-05-03T16:54:54.716Z,26.40
2019-05-03T16:57:29.063Z,26.40
2019-05-03T17:00:05.670Z,26.40
2019-05-03T17:02:39.203Z,26.40
2019-05-03T17:05:17.507Z,26.40
2019-05-03T17:07:52.802Z,26.50
2019-05-03T17:10:28.714Z,26.40
2019-05-03T17:13:05.390Z,26.40
2019-05-03T17:15:37.990Z,26.40
2019-05-03T17:18:10.739Z,26.40
2019-05-03T17:20:45.326Z,26.40
2019-05-03T17:23:21.306Z,26.40
2019-05-03T17:25:56.067Z,26.40
2019-05-03T17:28:28.485Z,26.40
2019-05-03T17:31:06.555Z,26.40
2019-05-03T17:33:50.754Z,26.40
2019-05-03T17:36:14.518Z,26.40
2019-05-03T17:38:49.240Z,26.40
2019-05-03T17:41:25.587Z,26.40
2019-05-03T17:43:59.526Z,26.40
2019-05-03T17:46:35.554Z,26.40
2019-05-03T17:49:09.707Z,26.50
2019-05-03T17:51:45.562Z,26.50
2019-05-03T17:54:37.337Z,26.50
2019-05-03T17:57:29.322Z,26.50
2019-05-03T18:00:05.803Z,26.50
2019-05-03T18:02:42.557Z,26.50
2019-05-03T18:05:34.577Z,26.50
2019-05-03T18:08:12.288Z,26.50
2019-05-03T18:10:47.537Z,26.50
2019-05-03T18:13:21.511Z,26.50
2019-05-03T18:15:55.515Z,26.50
2019-05-03T18:18:30.737Z,26.50
2019-05-03T18:21:04.804Z,26.50
2019-05-03T18:23:37.735Z,26.50
2019-05-03T18:26:11.396Z,26.50
2019-05-03T18:28:47.482Z,26.50
2019-05-03T18:31:20.252Z,26.60
2019-05-03T18:33:54.736Z,26.50
2019-05-03T18:36:28.685Z,26.60
2019-05-03T18:39:01.598Z,26.60
2019-05-03T18:41:35.137Z,26.70
2019-05-03T18:44:26.714Z,26.60
2019-05-03T18:47:05.678Z,26.70
2019-05-03T18:49:40.112Z,26.70
2019-05-03T18:52:16.081Z,26.70
2019-05-03T18:54:49.777Z,26.70
2019-05-03T18:57:22.585Z,26.70
2019-05-03T18:59:58.365Z,26.70
2019-05-03T19:02:33.996Z,26.70
2019-05-03T19:05:08.748Z,26.70
2019-05-03T19:07:46.990Z,26.70
2019-05-03T19:10:25.707Z,26.60
2019-05-03T19:12:59.476Z,26.60
2019-05-03T19:15:34.759Z,26.60
2019-05-03T19:18:09.761Z,26.60
2019-05-03T19:20:45.448Z,26.60
2019-05-03T19:23:18.968Z,26.60
2019-05-03T19:25:55.181Z,26.60
2019-05-03T19:28:29.116Z,26.70
2019-05-03T19:31:05.239Z,26.70
2019-05-03T19:33:38.155Z,26.70
2019-05-03T19:36:11.936Z,26.70
2019-05-03T19:38:45.636Z,26.80
2019-05-03T19:41:21.828Z,26.80
2019-05-03T19:43:55.820Z,26.80
2019-05-03T19:46:31.990Z,26.80
2019-05-03T19:49:07.176Z,26.90
2019-05-03T19:51:41.748Z,26.90
2019-05-03T19:54:16.103Z,27.00
2019-05-03T19:56:49.638Z,27.00
2019-05-03T19:59:40.468Z,27.00
2019-05-03T20:02:35.167Z,27.10
2019-05-03T20:05:28.111Z,27.10
2019-05-03T20:08:05.035Z,27.10
2019-05-03T20:10:36.867Z,27.10
2019-05-03T20:13:11.011Z,27.10
2019-05-03T20:15:46.448Z,27.10
2019-05-03T20:18:20.312Z,27.10
2019-05-03T20:20:55.315Z,27.10
2019-05-03T20:23:27.909Z,27.10
2019-05-03T20:26:00.714Z,27.10
2019-05-03T20:28:35.477Z,27.10
2019-05-03T20:31:08.999Z,27.00
2019-05-03T20:33:45.720Z,27.10
2019-05-03T20:36:18.620Z,27.10
2019-05-03T20:38:52.097Z,27.10
2019-05-03T20:41:27.523Z,27.10
2019-05-03T20:44:02.339Z,27.10
2019-05-03T20:46:55.031Z,27.10
2019-05-03T20:49:28.699Z,27.10
2019-05-03T20:52:02.481Z,27.10
2019-05-03T20:54:35.383Z,27.00
2019-05-03T20:57:09.806Z,27.00
2019-05-03T20:59:45.982Z,26.90
2019-05-03T21:02:19.150Z,26.80
2019-05-03T21:04:54.661Z,26.80
2019-05-03T21:07:27.346Z,26.70
2019-05-03T21:10:01.600Z,26.70
2019-05-03T21:12:34.678Z,26.70
2019-05-03T21:15:11.488Z,26.70
2019-05-03T21:18:04.755Z,26.70
2019-05-03T21:20:39.785Z,26.70
2019-05-03T21:23:14.759Z,26.60
2019-05-03T21:26:03.593Z,26.60
2019-05-03T21:28:25.138Z,26.60
2019-05-03T21:30:59.269Z,26.60
2019-05-03T21:33:31.905Z,26.60
2019-05-03T21:36:05.706Z,26.60
2019-05-03T21:38:40.812Z,26.60
2019-05-03T21:41:15.690Z,26.60
2019-05-03T21:43:50.414Z,26.60
2019-05-03T21:46:25.651Z,26.60
2019-05-03T21:49:00.785Z,26.60
2019-05-03T21:51:34.727Z,26.60
2019-05-03T21:54:08.755Z,26.60
2019-05-03T21:56:44.562Z,26.60
2019-05-03T21:59:17.706Z,26.60
2019-05-03T22:01:51.690Z,26.60
2019-05-03T22:04:25.356Z,26.60
2019-05-03T22:07:01.129Z,26.60
2019-05-03T22:09:36.479Z,26.60
2019-05-03T22:12:10.667Z,26.50
2019-05-03T22:14:45.618Z,26.50
2019-05-03T22:17:44.744Z,26.50
2019-05-03T22:20:26.781Z,26.50
2019-05-03T22:23:01.901Z,26.60
2019-05-03T22:25:35.795Z,26.60
2019-05-03T22:28:08.911Z,26.60
2019-05-03T22:30:45.372Z,26.60
2019-05-03T22:33:20.106Z,26.50
2019-05-03T22:36:07.944Z,26.50
2019-05-03T22:38:30.406Z,26.50
2019-05-03T22:41:05.375Z,26.50
2019-05-03T22:43:40.466Z,26.50
2019-05-03T22:46:14.644Z,26.50
2019-05-03T22:48:47.973Z,26.50
2019-05-03T22:51:24.347Z,26.50
2019-05-03T22:53:57.547Z,26.50
2019-05-03T22:56:32.134Z,26.40
2019-05-03T22:59:06.504Z,26.40
2019-05-03T23:01:40.616Z,26.40
2019-05-03T23:04:14.671Z,26.40
2019-05-03T23:06:48.196Z,26.50
2019-05-03T23:09:20.977Z,26.40
2019-05-03T23:11:56.959Z,26.40
2019-05-03T23:14:31.295Z,26.40
2019-05-03T23:17:06.799Z,26.40
2019-05-03T23:19:41.366Z,26.40
2019-05-03T23:22:19.167Z,26.40
2019-05-03T23:24:54.800Z,26.50
2019-05-03T23:27:27.528Z,26.50
2019-05-03T23:30:02.031Z,26.50
2019-05-03T23:32:35.966Z,26.50
2019-05-03T23:35:11.765Z,26.50
2019-05-03T23:37:45.684Z,26.50
2019-05-03T23:40:19.809Z,26.60
2019-05-03T23:42:54.457Z,26.60
2019-05-03T23:45:29.503Z,26.60
2019-05-03T23:48:04.670Z,26.60
2019-05-03T23:50:40.563Z,26.60
2019-05-03T23:53:15.294Z,26.70
2019-05-03T23:55:49.721Z,26.70
2019-05-03T23:58:24.725Z,26.70
